Jayton, Texas
Current Conditions -  °F | °C
As of 8:15 AM on Thursday 18 Dec 2014 (Local Time) from KSNK Reporting Station
Clear Clear  
Wind Chill: -1°   Ceiling: Unl
Heat Index:   Visibility: 7mi
Dew Point:   Wind: 6mph
Humidity: 97%   Direction: 180°S
Pressure: 30.12"   Gusts: NA
Location:  33.25°N, 100.57°W
Report Text: KSNK 181415Z AUTO 18005KT 7SM CLR 02/02 A3012 RMK AO2 T00200015
Loading
Personal Weather Stations






























Interactive Weather Map New forecast layout! Learn more

10-Day Weather Forecast

Advertisements
Track Severe Weather on mobile